Impacts METAR Board
IDs:

KLAS - Las Vegas/McCarran I, NV, US

Updated at: 1200 UTC 23 Mar 2019
Potential Impact None Slight Moderate High
Time 23/00Z 23/01Z 23/02Z 23/03Z 23/04Z 23/05Z 23/06Z 23/07Z 23/08Z 23/09Z 23/10Z 23/11Z 23/12Z
Temp68 68 66 65 63 61 60 58 58 57 57 57 55
Dewpt31 32 30 30 31 32 32 33 32 32 34 33 33
Altim30.00 30.00 30.01 30.02 30.04 30.05 30.05 30.05 30.05 30.05 30.04 30.04 30.03
VIS10 10 10 10 10 10 10 10 10 10 10 10 10
CIG-- -- -- -- 220 220 220 220 220 220 220 220 220
CoverFEWSCTSCTSCTBKNBKNBKNBKNBKNBKNBKNOVCBKN
FltCatVFRVFRVFRVFRVFRVFRVFRVFRVFRVFRVFRVFRVFR
WX--------------------------
WDir26036032030022022020021018020000170
WSpd6 5 6 6 4 3 3 4 5 3 0 0 4
WGst-- -- -- -- -- -- -- -- -- -- -- -- --
Raw hourly METARs
KLAS 222356Z 26006KT 10SM FEW085 FEW250 20/M01 A3000 RMK AO2 SLP149 T02001006 10206 20150 56010
KLAS 230056Z 36005KT 10SM FEW085 SCT250 20/00 A3000 RMK AO2 SLP150 T02000000
KLAS 230156Z 32006KT 10SM FEW085 SCT250 19/M01 A3001 RMK AO2 SLP156 T01891011
KLAS 230256Z 30006KT 10SM FEW085 SCT250 18/M01 A3002 RMK AO2 SLP159 T01831011 53008
KLAS 230356Z 22004KT 10SM FEW085 BKN220 17/M01 A3004 RMK AO2 SLP162 T01721006
KLAS 230456Z 22003KT 10SM FEW085 BKN220 16/00 A3005 RMK AO2 SLP168 T01610000
KLAS 230556Z 20003KT 10SM FEW085 BKN220 16/00 A3005 RMK AO2 SLP167 T01560000 10206 20156 50008
KLAS 230656Z 21004KT 10SM FEW085 BKN220 14/01 A3005 RMK AO2 SLP166 T01440006
KLAS 230756Z 18005KT 10SM FEW085 BKN220 14/00 A3005 RMK AO2 SLP163 T01440000 402060083
KLAS 230856Z 20003KT 10SM FEW085 BKN220 14/00 A3005 RMK AO2 SLP165 T01390000 55000
KLAS 230956Z 00000KT 10SM FEW085 BKN220 14/01 A3004 RMK AO2 SLP162 T01390011
KLAS 231056Z 00000KT 10SM FEW085 OVC220 14/01 A3004 RMK AO2 SLP160 T01390006
KLAS 231156Z 17004KT 10SM FEW085 BKN220 13/01 A3003 RMK AO2 SLP159 T01280006 10156 20128 56005



Page loaded:  12:17 UTC  |   05:17 AM Pacific  |   06:17 AM Mountain  |   07:17 AM Central  |   08:17 AM Eastern

 

ADVISORIES

FORECASTS

FORECASTS

OBSERVATIONS

USER TOOLS

ABOUT US